Norfolk, Virginia
Traffic Map
Current Weather Conditions
Norfolk, Virginia
Clear
Clear
36°
Feels Like: 32°
Wind Chill: 32° Ceiling: Unl
Heat Index: 36° Visibility: 10mi
Dew Point: 16° Wind: 5mph
Humidity: 44% Direction: 310° (NW)
Pressure: 30.51in Gusts: 0mph
Raw Report DataKORF 110151Z 31004KT 10SM CLR 02/M09 A3051 RMK AO2 SLP332 T00221089
Traffic Incident Summary
Active as of:
Severity:
Category:
InformationThere was an issue retrieving the traffic information for this location. Please try a different location or try again shortly.
Advertisements
Track Severe Weather on mobile